sensor_id;sensor_type;location;lat;lon;timestamp;P1;durP1;ratioP1;P2;durP2;ratioP2
1366;SDS011;16877;48.810;9.282;2022-07-11T00:01:59;2.00;;;1.03;;
1366;SDS011;16877;48.810;9.282;2022-07-11T00:04:26;5.83;;;1.23;;
1366;SDS011;16877;48.810;9.282;2022-07-11T00:06:53;2.10;;;1.17;;
1366;SDS011;16877;48.810;9.282;2022-07-11T00:09:21;3.87;;;1.53;;
1366;SDS011;16877;48.810;9.282;2022-07-11T00:11:48;6.60;;;1.53;;
1366;SDS011;16877;48.810;9.282;2022-07-11T00:14:15;2.63;;;1.23;;
1366;SDS011;16877;48.810;9.282;2022-07-11T00:16:42;2.23;;;1.07;;
1366;SDS011;16877;48.810;9.282;2022-07-11T00:19:09;2.27;;;1.37;;
1366;SDS011;16877;48.810;9.282;2022-07-11T00:21:36;2.23;;;1.23;;
1366;SDS011;16877;48.810;9.282;2022-07-11T00:24:03;2.60;;;1.50;;
1366;SDS011;16877;48.810;9.282;2022-07-11T00:26:32;3.03;;;1.73;;
1366;SDS011;16877;48.810;9.282;2022-07-11T00:28:59;2.80;;;1.33;;
1366;SDS011;16877;48.810;9.282;2022-07-11T00:31:26;2.60;;;1.20;;
1366;SDS011;16877;48.810;9.282;2022-07-11T00:33:53;3.20;;;1.60;;
1366;SDS011;16877;48.810;9.282;2022-07-11T00:36:19;3.17;;;1.57;;
1366;SDS011;16877;48.810;9.282;2022-07-11T00:38:46;3.33;;;1.70;;
1366;SDS011;16877;48.810;9.282;2022-07-11T00:41:13;3.40;;;1.50;;
1366;SDS011;16877;48.810;9.282;2022-07-11T00:43:41;3.93;;;1.60;;
1366;SDS011;16877;48.810;9.282;2022-07-11T00:46:08;2.83;;;1.70;;
1366;SDS011;16877;48.810;9.282;2022-07-11T00:48:36;3.27;;;1.90;;
1366;SDS011;16877;48.810;9.282;2022-07-11T00:51:03;3.77;;;1.70;;
1366;SDS011;16877;48.810;9.282;2022-07-11T00:53:31;2.43;;;1.30;;
1366;SDS011;16877;48.810;9.282;2022-07-11T00:55:59;3.07;;;1.60;;
1366;SDS011;16877;48.810;9.282;2022-07-11T00:58:27;3.10;;;1.70;;
1366;SDS011;16877;48.810;9.282;2022-07-11T01:00:55;3.27;;;1.77;;
1366;SDS011;16877;48.810;9.282;2022-07-11T01:03:23;2.23;;;1.10;;
1366;SDS011;16877;48.810;9.282;2022-07-11T01:05:50;3.83;;;1.90;;
1366;SDS011;16877;48.810;9.282;2022-07-11T01:08:17;2.97;;;1.50;;
1366;SDS011;16877;48.810;9.282;2022-07-11T01:10:43;3.00;;;1.63;;
1366;SDS011;16877;48.810;9.282;2022-07-11T01:13:10;2.60;;;1.50;;
1366;SDS011;16877;48.810;9.282;2022-07-11T01:15:37;4.00;;;1.33;;
1366;SDS011;16877;48.810;9.282;2022-07-11T01:18:05;2.73;;;1.40;;
1366;SDS011;16877;48.810;9.282;2022-07-11T01:20:31;2.23;;;1.10;;
1366;SDS011;16877;48.810;9.282;2022-07-11T01:23:01;2.67;;;1.50;;
1366;SDS011;16877;48.810;9.282;2022-07-11T01:25:28;3.17;;;1.60;;
1366;SDS011;16877;48.810;9.282;2022-07-11T01:27:56;3.80;;;1.90;;
1366;SDS011;16877;48.810;9.282;2022-07-11T01:30:23;2.47;;;1.20;;
1366;SDS011;16877;48.810;9.282;2022-07-11T01:32:51;3.60;;;1.70;;
1366;SDS011;16877;48.810;9.282;2022-07-11T01:35:18;2.90;;;1.40;;
1366;SDS011;16877;48.810;9.282;2022-07-11T01:37:45;3.70;;;1.83;;
1366;SDS011;16877;48.810;9.282;2022-07-11T01:40:13;2.47;;;1.33;;
1366;SDS011;16877;48.810;9.282;2022-07-11T01:42:40;3.33;;;1.90;;
1366;SDS011;16877;48.810;9.282;2022-07-11T01:45:07;2.37;;;1.40;;
1366;SDS011;16877;48.810;9.282;2022-07-11T01:47:35;2.70;;;1.43;;
1366;SDS011;16877;48.810;9.282;2022-07-11T01:50:02;2.20;;;1.30;;
1366;SDS011;16877;48.810;9.282;2022-07-11T01:52:29;2.50;;;1.50;;
1366;SDS011;16877;48.810;9.282;2022-07-11T01:54:56;3.87;;;1.70;;
1366;SDS011;16877;48.810;9.282;2022-07-11T01:57:24;2.10;;;1.10;;
1366;SDS011;16877;48.810;9.282;2022-07-11T01:59:51;3.00;;;1.20;;
1366;SDS011;16877;48.810;9.282;2022-07-11T02:02:18;4.20;;;1.60;;
1366;SDS011;16877;48.810;9.282;2022-07-11T02:04:44;2.83;;;1.27;;
1366;SDS011;16877;48.810;9.282;2022-07-11T02:07:11;2.67;;;1.40;;
1366;SDS011;16877;48.810;9.282;2022-07-11T02:09:40;3.17;;;1.57;;
1366;SDS011;16877;48.810;9.282;2022-07-11T02:12:07;3.00;;;1.40;;
1366;SDS011;16877;48.810;9.282;2022-07-11T02:14:35;3.80;;;1.93;;
1366;SDS011;16877;48.810;9.282;2022-07-11T02:17:02;2.70;;;1.30;;
1366;SDS011;16877;48.810;9.282;2022-07-11T02:19:29;4.20;;;1.20;;
1366;SDS011;16877;48.810;9.282;2022-07-11T02:21:55;2.70;;;1.53;;
1366;SDS011;16877;48.810;9.282;2022-07-11T02:24:22;2.43;;;1.13;;
1366;SDS011;16877;48.810;9.282;2022-07-11T02:26:49;2.63;;;1.17;;
1366;SDS011;16877;48.810;9.282;2022-07-11T02:29:15;2.77;;;1.37;;
1366;SDS011;16877;48.810;9.282;2022-07-11T02:31:48;2.93;;;1.70;;
1366;SDS011;16877;48.810;9.282;2022-07-11T02:34:15;3.10;;;1.73;;
1366;SDS011;16877;48.810;9.282;2022-07-11T02:36:41;3.70;;;1.60;;
1366;SDS011;16877;48.810;9.282;2022-07-11T02:39:08;2.97;;;1.30;;
1366;SDS011;16877;48.810;9.282;2022-07-11T02:41:35;2.27;;;1.20;;
1366;SDS011;16877;48.810;9.282;2022-07-11T02:44:01;2.20;;;1.13;;
1366;SDS011;16877;48.810;9.282;2022-07-11T02:46:28;2.33;;;1.20;;
1366;SDS011;16877;48.810;9.282;2022-07-11T02:48:56;2.70;;;0.90;;
1366;SDS011;16877;48.810;9.282;2022-07-11T02:51:24;2.00;;;0.87;;
1366;SDS011;16877;48.810;9.282;2022-07-11T02:53:50;2.90;;;1.27;;
1366;SDS011;16877;48.810;9.282;2022-07-11T02:56:17;2.40;;;1.50;;
1366;SDS011;16877;48.810;9.282;2022-07-11T02:58:44;2.33;;;1.17;;
1366;SDS011;16877;48.810;9.282;2022-07-11T03:01:11;2.50;;;1.20;;
1366;SDS011;16877;48.810;9.282;2022-07-11T03:03:37;2.80;;;1.40;;
1366;SDS011;16877;48.810;9.282;2022-07-11T03:06:06;2.60;;;1.30;;
1366;SDS011;16877;48.810;9.282;2022-07-11T03:08:32;2.83;;;1.50;;
1366;SDS011;16877;48.810;9.282;2022-07-11T03:10:59;3.60;;;1.20;;
1366;SDS011;16877;48.810;9.282;2022-07-11T03:13:25;2.40;;;1.30;;
1366;SDS011;16877;48.810;9.282;2022-07-11T03:15:52;2.40;;;1.10;;
1366;SDS011;16877;48.810;9.282;2022-07-11T03:18:19;2.33;;;1.40;;
1366;SDS011;16877;48.810;9.282;2022-07-11T03:20:45;3.13;;;1.43;;
1366;SDS011;16877;48.810;9.282;2022-07-11T03:23:13;3.93;;;2.00;;
1366;SDS011;16877;48.810;9.282;2022-07-11T03:25:40;2.87;;;1.53;;
1366;SDS011;16877;48.810;9.282;2022-07-11T03:28:07;2.77;;;1.63;;
1366;SDS011;16877;48.810;9.282;2022-07-11T03:30:33;3.20;;;1.60;;
1366;SDS011;16877;48.810;9.282;2022-07-11T03:33:00;5.57;;;2.57;;
1366;SDS011;16877;48.810;9.282;2022-07-11T03:35:27;3.10;;;1.73;;
1366;SDS011;16877;48.810;9.282;2022-07-11T03:38:09;4.73;;;2.30;;
1366;SDS011;16877;48.810;9.282;2022-07-11T03:40:38;3.87;;;2.13;;
1366;SDS011;16877;48.810;9.282;2022-07-11T03:43:05;3.50;;;2.10;;
1366;SDS011;16877;48.810;9.282;2022-07-11T03:45:32;4.40;;;2.30;;
1366;SDS011;16877;48.810;9.282;2022-07-11T03:47:58;4.33;;;2.70;;
1366;SDS011;16877;48.810;9.282;2022-07-11T03:50:25;3.70;;;2.30;;
1366;SDS011;16877;48.810;9.282;2022-07-11T03:52:52;4.20;;;1.97;;
1366;SDS011;16877;48.810;9.282;2022-07-11T03:55:19;3.40;;;2.23;;
1366;SDS011;16877;48.810;9.282;2022-07-11T03:57:47;3.70;;;2.03;;
1366;SDS011;16877;48.810;9.282;2022-07-11T04:00:14;4.80;;;2.60;;
1366;SDS011;16877;48.810;9.282;2022-07-11T04:02:41;4.73;;;2.27;;
1366;SDS011;16877;48.810;9.282;2022-07-11T04:05:08;4.77;;;2.80;;
1366;SDS011;16877;48.810;9.282;2022-07-11T04:07:35;6.80;;;2.20;;
1366;SDS011;16877;48.810;9.282;2022-07-11T04:10:01;6.07;;;3.50;;
1366;SDS011;16877;48.810;9.282;2022-07-11T04:12:28;7.10;;;3.10;;
1366;SDS011;16877;48.810;9.282;2022-07-11T04:14:56;3.10;;;2.10;;
1366;SDS011;16877;48.810;9.282;2022-07-11T04:17:23;4.67;;;2.57;;
1366;SDS011;16877;48.810;9.282;2022-07-11T04:19:51;3.37;;;2.00;;
1366;SDS011;16877;48.810;9.282;2022-07-11T04:22:18;3.90;;;2.30;;
1366;SDS011;16877;48.810;9.282;2022-07-11T04:24:45;3.33;;;1.80;;
1366;SDS011;16877;48.810;9.282;2022-07-11T04:27:12;4.40;;;2.30;;
1366;SDS011;16877;48.810;9.282;2022-07-11T04:29:38;3.73;;;1.80;;
1366;SDS011;16877;48.810;9.282;2022-07-11T04:32:07;5.03;;;2.27;;
1366;SDS011;16877;48.810;9.282;2022-07-11T04:34:34;4.60;;;2.50;;
1366;SDS011;16877;48.810;9.282;2022-07-11T04:37:00;4.53;;;2.60;;
1366;SDS011;16877;48.810;9.282;2022-07-11T04:39:28;4.70;;;2.60;;
1366;SDS011;16877;48.810;9.282;2022-07-11T04:41:55;3.27;;;1.87;;
1366;SDS011;16877;48.810;9.282;2022-07-11T04:44:21;3.37;;;2.00;;
1366;SDS011;16877;48.810;9.282;2022-07-11T04:46:48;4.57;;;2.50;;
1366;SDS011;16877;48.810;9.282;2022-07-11T04:49:16;3.43;;;2.40;;
1366;SDS011;16877;48.810;9.282;2022-07-11T04:51:43;3.90;;;2.50;;
1366;SDS011;16877;48.810;9.282;2022-07-11T04:54:10;3.50;;;2.13;;
1366;SDS011;16877;48.810;9.282;2022-07-11T04:56:37;3.17;;;2.10;;
1366;SDS011;16877;48.810;9.282;2022-07-11T04:59:03;3.53;;;1.80;;
1366;SDS011;16877;48.810;9.282;2022-07-11T05:01:31;2.40;;;1.47;;
1366;SDS011;16877;48.810;9.282;2022-07-11T05:04:02;3.40;;;2.10;;
1366;SDS011;16877;48.810;9.282;2022-07-11T05:06:31;3.97;;;2.43;;
1366;SDS011;16877;48.810;9.282;2022-07-11T05:08:57;2.60;;;2.00;;
1366;SDS011;16877;48.810;9.282;2022-07-11T05:11:24;3.60;;;2.23;;
1366;SDS011;16877;48.810;9.282;2022-07-11T05:13:51;2.80;;;1.93;;
1366;SDS011;16877;48.810;9.282;2022-07-11T05:16:17;3.40;;;1.97;;
1366;SDS011;16877;48.810;9.282;2022-07-11T05:18:44;2.70;;;1.77;;
1366;SDS011;16877;48.810;9.282;2022-07-11T05:21:11;2.40;;;1.50;;
1366;SDS011;16877;48.810;9.282;2022-07-11T05:23:39;3.37;;;1.90;;
1366;SDS011;16877;48.810;9.282;2022-07-11T05:26:05;2.23;;;1.80;;
1366;SDS011;16877;48.810;9.282;2022-07-11T05:28:33;2.80;;;1.73;;
1366;SDS011;16877;48.810;9.282;2022-07-11T05:30:59;3.93;;;1.70;;
1366;SDS011;16877;48.810;9.282;2022-07-11T05:33:26;2.53;;;1.93;;
1366;SDS011;16877;48.810;9.282;2022-07-11T05:35:54;2.77;;;1.60;;
1366;SDS011;16877;48.810;9.282;2022-07-11T05:38:21;2.93;;;1.80;;
1366;SDS011;16877;48.810;9.282;2022-07-11T05:40:49;2.50;;;1.60;;
1366;SDS011;16877;48.810;9.282;2022-07-11T05:43:15;2.30;;;1.67;;
1366;SDS011;16877;48.810;9.282;2022-07-11T05:45:42;2.97;;;1.70;;
1366;SDS011;16877;48.810;9.282;2022-07-11T05:48:09;4.43;;;2.37;;
1366;SDS011;16877;48.810;9.282;2022-07-11T05:50:36;2.40;;;1.60;;
1366;SDS011;16877;48.810;9.282;2022-07-11T05:53:02;3.30;;;1.83;;
1366;SDS011;16877;48.810;9.282;2022-07-11T05:55:29;3.77;;;2.10;;
1366;SDS011;16877;48.810;9.282;2022-07-11T05:57:57;2.60;;;1.73;;
1366;SDS011;16877;48.810;9.282;2022-07-11T06:00:26;3.10;;;1.90;;
1366;SDS011;16877;48.810;9.282;2022-07-11T06:02:52;2.63;;;1.80;;
1366;SDS011;16877;48.810;9.282;2022-07-11T06:05:19;3.10;;;1.80;;
1366;SDS011;16877;48.810;9.282;2022-07-11T06:07:47;2.43;;;1.77;;
1366;SDS011;16877;48.810;9.282;2022-07-11T06:10:31;2.33;;;1.53;;
1366;SDS011;16877;48.810;9.282;2022-07-11T06:12:59;2.47;;;1.40;;
1366;SDS011;16877;48.810;9.282;2022-07-11T06:15:26;3.03;;;1.73;;
1366;SDS011;16877;48.810;9.282;2022-07-11T06:17:53;3.00;;;2.00;;
1366;SDS011;16877;48.810;9.282;2022-07-11T06:20:20;3.73;;;2.07;;
1366;SDS011;16877;48.810;9.282;2022-07-11T06:22:47;4.10;;;1.90;;
1366;SDS011;16877;48.810;9.282;2022-07-11T06:25:15;3.10;;;1.97;;
1366;SDS011;16877;48.810;9.282;2022-07-11T06:27:42;2.80;;;1.60;;
1366;SDS011;16877;48.810;9.282;2022-07-11T06:30:10;3.73;;;1.90;;
1366;SDS011;16877;48.810;9.282;2022-07-11T06:32:38;3.50;;;2.00;;
1366;SDS011;16877;48.810;9.282;2022-07-11T06:35:05;2.87;;;2.27;;
1366;SDS011;16877;48.810;9.282;2022-07-11T06:37:33;2.20;;;1.60;;
1366;SDS011;16877;48.810;9.282;2022-07-11T06:40:00;2.60;;;1.83;;
1366;SDS011;16877;48.810;9.282;2022-07-11T06:42:27;2.50;;;1.80;;
1366;SDS011;16877;48.810;9.282;2022-07-11T06:44:54;4.13;;;2.23;;
1366;SDS011;16877;48.810;9.282;2022-07-11T06:47:22;3.70;;;2.30;;
1366;SDS011;16877;48.810;9.282;2022-07-11T06:49:49;2.23;;;1.50;;
1366;SDS011;16877;48.810;9.282;2022-07-11T06:52:15;3.37;;;2.10;;
1366;SDS011;16877;48.810;9.282;2022-07-11T06:54:42;2.30;;;1.20;;
1366;SDS011;16877;48.810;9.282;2022-07-11T06:57:09;2.30;;;1.23;;
1366;SDS011;16877;48.810;9.282;2022-07-11T06:59:35;2.67;;;1.43;;
1366;SDS011;16877;48.810;9.282;2022-07-11T07:02:03;2.57;;;1.30;;
1366;SDS011;16877;48.810;9.282;2022-07-11T07:04:31;2.80;;;1.43;;
1366;SDS011;16877;48.810;9.282;2022-07-11T07:06:57;3.43;;;1.43;;
1366;SDS011;16877;48.810;9.282;2022-07-11T07:09:25;2.20;;;1.20;;
1366;SDS011;16877;48.810;9.282;2022-07-11T07:11:52;2.33;;;1.33;;
1366;SDS011;16877;48.810;9.282;2022-07-11T07:14:19;3.50;;;1.80;;
1366;SDS011;16877;48.810;9.282;2022-07-11T07:16:46;4.23;;;2.10;;
1366;SDS011;16877;48.810;9.282;2022-07-11T07:19:13;2.60;;;1.57;;
1366;SDS011;16877;48.810;9.282;2022-07-11T07:21:41;2.30;;;1.20;;
1366;SDS011;16877;48.810;9.282;2022-07-11T07:24:09;3.00;;;1.80;;
1366;SDS011;16877;48.810;9.282;2022-07-11T07:26:36;3.30;;;1.90;;
1366;SDS011;16877;48.810;9.282;2022-07-11T07:29:02;2.80;;;1.90;;
1366;SDS011;16877;48.810;9.282;2022-07-11T07:31:29;3.90;;;2.07;;
1366;SDS011;16877;48.810;9.282;2022-07-11T07:33:55;3.77;;;1.77;;
1366;SDS011;16877;48.810;9.282;2022-07-11T07:36:22;4.10;;;1.93;;
1366;SDS011;16877;48.810;9.282;2022-07-11T07:38:50;3.50;;;1.97;;
1366;SDS011;16877;48.810;9.282;2022-07-11T07:41:17;3.57;;;1.93;;
1366;SDS011;16877;48.810;9.282;2022-07-11T07:43:45;2.97;;;1.87;;
1366;SDS011;16877;48.810;9.282;2022-07-11T07:46:13;3.27;;;1.87;;
1366;SDS011;16877;48.810;9.282;2022-07-11T07:48:40;2.40;;;1.57;;
1366;SDS011;16877;48.810;9.282;2022-07-11T07:51:07;2.67;;;1.50;;
1366;SDS011;16877;48.810;9.282;2022-07-11T07:53:34;4.23;;;1.80;;
1366;SDS011;16877;48.810;9.282;2022-07-11T07:56:02;3.63;;;1.70;;
1366;SDS011;16877;48.810;9.282;2022-07-11T07:58:29;2.47;;;1.70;;
1366;SDS011;16877;48.810;9.282;2022-07-11T08:00:55;2.87;;;1.87;;
1366;SDS011;16877;48.810;9.282;2022-07-11T08:03:40;3.47;;;2.00;;
1366;SDS011;16877;48.810;9.282;2022-07-11T08:06:07;2.47;;;1.67;;
1366;SDS011;16877;48.810;9.282;2022-07-11T08:08:33;2.03;;;1.07;;
1366;SDS011;16877;48.810;9.282;2022-07-11T08:11:01;3.50;;;2.20;;
1366;SDS011;16877;48.810;9.282;2022-07-11T08:13:28;2.07;;;1.30;;
1366;SDS011;16877;48.810;9.282;2022-07-11T08:15:55;1.97;;;1.40;;
1366;SDS011;16877;48.810;9.282;2022-07-11T08:18:22;2.30;;;1.30;;
1366;SDS011;16877;48.810;9.282;2022-07-11T08:20:49;2.50;;;1.30;;
1366;SDS011;16877;48.810;9.282;2022-07-11T08:23:15;2.53;;;1.43;;
1366;SDS011;16877;48.810;9.282;2022-07-11T08:25:42;2.20;;;1.40;;
1366;SDS011;16877;48.810;9.282;2022-07-11T08:28:10;2.90;;;1.33;;
1366;SDS011;16877;48.810;9.282;2022-07-11T08:30:37;1.80;;;1.00;;
1366;SDS011;16877;48.810;9.282;2022-07-11T08:33:03;2.13;;;1.03;;
1366;SDS011;16877;48.810;9.282;2022-07-11T08:35:30;2.10;;;1.10;;
1366;SDS011;16877;48.810;9.282;2022-07-11T08:37:57;2.10;;;1.33;;
1366;SDS011;16877;48.810;9.282;2022-07-11T08:40:23;2.07;;;1.17;;
1366;SDS011;16877;48.810;9.282;2022-07-11T08:42:50;2.00;;;1.20;;
1366;SDS011;16877;48.810;9.282;2022-07-11T08:45:19;2.43;;;1.33;;
1366;SDS011;16877;48.810;9.282;2022-07-11T08:47:48;2.10;;;1.50;;
1366;SDS011;16877;48.810;9.282;2022-07-11T08:50:19;4.00;;;1.43;;
1366;SDS011;16877;48.810;9.282;2022-07-11T08:52:46;3.97;;;1.83;;
1366;SDS011;16877;48.810;9.282;2022-07-11T08:55:13;2.90;;;1.40;;
1366;SDS011;16877;48.810;9.282;2022-07-11T08:57:40;2.23;;;1.47;;
1366;SDS011;16877;48.810;9.282;2022-07-11T09:00:07;2.33;;;1.47;;
1366;SDS011;16877;48.810;9.282;2022-07-11T09:02:36;3.33;;;1.60;;
1366;SDS011;16877;48.810;9.282;2022-07-11T09:05:07;3.20;;;1.33;;
1366;SDS011;16877;48.810;9.282;2022-07-11T09:07:34;2.80;;;1.47;;
1366;SDS011;16877;48.810;9.282;2022-07-11T09:10:08;2.83;;;1.60;;
1366;SDS011;16877;48.810;9.282;2022-07-11T09:12:35;3.90;;;1.73;;
1366;SDS011;16877;48.810;9.282;2022-07-11T09:15:02;2.67;;;1.50;;
1366;SDS011;16877;48.810;9.282;2022-07-11T09:17:29;2.93;;;2.27;;
1366;SDS011;16877;48.810;9.282;2022-07-11T09:19:57;3.67;;;1.30;;
1366;SDS011;16877;48.810;9.282;2022-07-11T09:22:24;1.90;;;1.20;;
1366;SDS011;16877;48.810;9.282;2022-07-11T09:25:09;3.60;;;1.20;;
1366;SDS011;16877;48.810;9.282;2022-07-11T09:27:47;2.17;;;1.20;;
1366;SDS011;16877;48.810;9.282;2022-07-11T09:30:16;2.30;;;1.27;;
1366;SDS011;16877;48.810;9.282;2022-07-11T09:32:51;2.10;;;1.00;;
1366;SDS011;16877;48.810;9.282;2022-07-11T09:35:24;2.10;;;1.23;;
1366;SDS011;16877;48.810;9.282;2022-07-11T09:37:52;2.47;;;1.13;;
1366;SDS011;16877;48.810;9.282;2022-07-11T09:40:19;1.70;;;0.70;;
1366;SDS011;16877;48.810;9.282;2022-07-11T09:42:48;1.93;;;1.07;;
1366;SDS011;16877;48.810;9.282;2022-07-11T09:45:16;2.10;;;1.03;;
1366;SDS011;16877;48.810;9.282;2022-07-11T09:47:44;2.50;;;1.20;;
1366;SDS011;16877;48.810;9.282;2022-07-11T09:50:11;2.23;;;1.00;;
1366;SDS011;16877;48.810;9.282;2022-07-11T09:52:40;2.77;;;1.00;;
1366;SDS011;16877;48.810;9.282;2022-07-11T09:55:08;1.90;;;1.07;;
1366;SDS011;16877;48.810;9.282;2022-07-11T09:57:35;2.73;;;1.30;;
1366;SDS011;16877;48.810;9.282;2022-07-11T10:00:04;2.20;;;1.30;;
1366;SDS011;16877;48.810;9.282;2022-07-11T10:02:32;2.07;;;1.10;;
1366;SDS011;16877;48.810;9.282;2022-07-11T10:04:59;1.90;;;1.13;;
1366;SDS011;16877;48.810;9.282;2022-07-11T10:07:25;1.70;;;1.00;;
1366;SDS011;16877;48.810;9.282;2022-07-11T10:09:54;2.20;;;0.93;;
1366;SDS011;16877;48.810;9.282;2022-07-11T10:12:22;1.90;;;1.27;;
1366;SDS011;16877;48.810;9.282;2022-07-11T10:14:50;1.87;;;1.20;;
1366;SDS011;16877;48.810;9.282;2022-07-11T10:17:18;2.37;;;1.20;;
1366;SDS011;16877;48.810;9.282;2022-07-11T10:19:56;1.90;;;1.10;;
1366;SDS011;16877;48.810;9.282;2022-07-11T10:22:31;2.57;;;1.03;;
1366;SDS011;16877;48.810;9.282;2022-07-11T10:25:06;2.20;;;1.33;;
1366;SDS011;16877;48.810;9.282;2022-07-11T10:27:44;2.00;;;1.10;;
1366;SDS011;16877;48.810;9.282;2022-07-11T10:30:40;2.07;;;1.20;;
1366;SDS011;16877;48.810;9.282;2022-07-11T10:33:08;2.50;;;1.60;;
1366;SDS011;16877;48.810;9.282;2022-07-11T10:35:35;2.80;;;1.40;;
1366;SDS011;16877;48.810;9.282;2022-07-11T10:38:05;2.77;;;1.67;;
1366;SDS011;16877;48.810;9.282;2022-07-11T10:40:46;2.30;;;1.40;;
1366;SDS011;16877;48.810;9.282;2022-07-11T10:43:14;2.43;;;1.23;;
1366;SDS011;16877;48.810;9.282;2022-07-11T10:45:48;1.90;;;1.00;;
1366;SDS011;16877;48.810;9.282;2022-07-11T10:48:20;1.90;;;1.00;;
1366;SDS011;16877;48.810;9.282;2022-07-11T10:50:47;2.30;;;1.00;;
1366;SDS011;16877;48.810;9.282;2022-07-11T10:53:20;2.80;;;1.20;;
1366;SDS011;16877;48.810;9.282;2022-07-11T10:55:53;10.00;;;1.20;;
1366;SDS011;16877;48.810;9.282;2022-07-11T10:58:31;2.00;;;1.13;;
1366;SDS011;16877;48.810;9.282;2022-07-11T11:01:08;2.00;;;1.20;;
1366;SDS011;16877;48.810;9.282;2022-07-11T11:03:36;1.90;;;1.00;;
1366;SDS011;16877;48.810;9.282;2022-07-11T11:06:03;1.80;;;1.00;;
1366;SDS011;16877;48.810;9.282;2022-07-11T11:11:54;1.90;;;0.90;;
1366;SDS011;16877;48.810;9.282;2022-07-11T11:14:24;3.43;;;1.23;;
1366;SDS011;16877;48.810;9.282;2022-07-11T11:16:54;1.80;;;1.20;;
1366;SDS011;16877;48.810;9.282;2022-07-11T11:22:20;2.47;;;1.23;;
1366;SDS011;16877;48.810;9.282;2022-07-11T11:24:49;2.00;;;0.80;;
1366;SDS011;16877;48.810;9.282;2022-07-11T11:27:19;1.90;;;1.10;;
1366;SDS011;16877;48.810;9.282;2022-07-11T11:29:49;2.03;;;1.00;;
1366;SDS011;16877;48.810;9.282;2022-07-11T11:32:18;2.60;;;1.30;;
1366;SDS011;16877;48.810;9.282;2022-07-11T11:34:45;2.17;;;0.90;;
1366;SDS011;16877;48.810;9.282;2022-07-11T11:37:12;2.23;;;1.30;;
1366;SDS011;16877;48.810;9.282;2022-07-11T11:39:42;2.10;;;1.13;;
1366;SDS011;16877;48.810;9.282;2022-07-11T11:42:10;2.50;;;1.10;;
1366;SDS011;16877;48.810;9.282;2022-07-11T11:44:50;2.20;;;1.17;;
1366;SDS011;16877;48.810;9.282;2022-07-11T11:47:22;5.00;;;1.00;;
1366;SDS011;16877;48.810;9.282;2022-07-11T11:49:49;2.50;;;1.40;;
1366;SDS011;16877;48.810;9.282;2022-07-11T11:52:17;2.20;;;1.10;;
1366;SDS011;16877;48.810;9.282;2022-07-11T11:54:49;2.20;;;1.20;;
1366;SDS011;16877;48.810;9.282;2022-07-11T11:57:19;2.73;;;1.50;;
1366;SDS011;16877;48.810;9.282;2022-07-11T11:59:47;2.50;;;1.57;;
1366;SDS011;16877;48.810;9.282;2022-07-11T12:02:21;2.23;;;1.10;;
1366;SDS011;16877;48.810;9.282;2022-07-11T12:04:52;3.20;;;1.30;;
1366;SDS011;16877;48.810;9.282;2022-07-11T12:07:22;2.23;;;1.40;;
1366;SDS011;16877;48.810;9.282;2022-07-11T12:09:51;2.20;;;1.30;;
1366;SDS011;16877;48.810;9.282;2022-07-11T12:12:22;2.53;;;1.43;;
1366;SDS011;16877;48.810;9.282;2022-07-11T12:15:21;1.90;;;1.20;;
1366;SDS011;16877;48.810;9.282;2022-07-11T12:17:52;2.77;;;1.20;;
1366;SDS011;16877;48.810;9.282;2022-07-11T12:23:07;2.50;;;1.30;;
1366;SDS011;16877;48.810;9.282;2022-07-11T12:25:35;1.87;;;1.00;;
1366;SDS011;16877;48.810;9.282;2022-07-11T12:28:03;2.43;;;1.53;;
1366;SDS011;16877;48.810;9.282;2022-07-11T12:30:33;2.60;;;1.60;;
1366;SDS011;16877;48.810;9.282;2022-07-11T12:33:05;2.93;;;1.07;;
1366;SDS011;16877;48.810;9.282;2022-07-11T12:35:33;2.23;;;1.27;;
1366;SDS011;16877;48.810;9.282;2022-07-11T12:38:00;2.17;;;1.50;;
1366;SDS011;16877;48.810;9.282;2022-07-11T12:40:27;2.60;;;1.50;;
1366;SDS011;16877;48.810;9.282;2022-07-11T12:42:53;2.07;;;1.47;;
1366;SDS011;16877;48.810;9.282;2022-07-11T12:45:20;3.77;;;1.40;;
1366;SDS011;16877;48.810;9.282;2022-07-11T12:47:46;2.33;;;1.50;;
1366;SDS011;16877;48.810;9.282;2022-07-11T12:50:15;2.40;;;1.40;;
1366;SDS011;16877;48.810;9.282;2022-07-11T12:52:44;2.67;;;1.70;;
1366;SDS011;16877;48.810;9.282;2022-07-11T12:55:19;2.73;;;1.60;;
1366;SDS011;16877;48.810;9.282;2022-07-11T12:58:00;2.40;;;1.60;;
1366;SDS011;16877;48.810;9.282;2022-07-11T13:00:29;2.10;;;1.37;;
1366;SDS011;16877;48.810;9.282;2022-07-11T13:02:57;2.40;;;1.50;;
1366;SDS011;16877;48.810;9.282;2022-07-11T13:05:25;2.73;;;1.30;;
1366;SDS011;16877;48.810;9.282;2022-07-11T13:07:52;2.50;;;1.60;;
1366;SDS011;16877;48.810;9.282;2022-07-11T13:10:36;2.47;;;1.43;;
1366;SDS011;16877;48.810;9.282;2022-07-11T13:13:26;2.30;;;1.63;;
1366;SDS011;16877;48.810;9.282;2022-07-11T13:15:52;2.33;;;1.47;;
1366;SDS011;16877;48.810;9.282;2022-07-11T13:18:20;3.20;;;1.73;;
1366;SDS011;16877;48.810;9.282;2022-07-11T13:20:48;2.00;;;1.30;;
1366;SDS011;16877;48.810;9.282;2022-07-11T13:23:15;2.77;;;1.40;;
1366;SDS011;16877;48.810;9.282;2022-07-11T13:25:41;3.17;;;2.00;;
1366;SDS011;16877;48.810;9.282;2022-07-11T13:28:08;2.37;;;1.43;;
1366;SDS011;16877;48.810;9.282;2022-07-11T13:30:36;3.30;;;1.37;;
1366;SDS011;16877;48.810;9.282;2022-07-11T13:33:04;4.57;;;1.50;;
1366;SDS011;16877;48.810;9.282;2022-07-11T13:35:30;2.40;;;1.40;;
1366;SDS011;16877;48.810;9.282;2022-07-11T13:37:58;3.43;;;1.73;;
1366;SDS011;16877;48.810;9.282;2022-07-11T13:40:25;2.50;;;1.50;;
1366;SDS011;16877;48.810;9.282;2022-07-11T13:42:53;2.50;;;1.63;;
1366;SDS011;16877;48.810;9.282;2022-07-11T13:45:21;2.60;;;1.53;;
1366;SDS011;16877;48.810;9.282;2022-07-11T13:47:49;2.40;;;1.67;;
1366;SDS011;16877;48.810;9.282;2022-07-11T13:50:16;2.30;;;1.50;;
1366;SDS011;16877;48.810;9.282;2022-07-11T13:52:46;2.97;;;1.77;;
1366;SDS011;16877;48.810;9.282;2022-07-11T13:55:14;2.60;;;1.53;;
1366;SDS011;16877;48.810;9.282;2022-07-11T13:57:41;2.53;;;1.60;;
1366;SDS011;16877;48.810;9.282;2022-07-11T14:00:09;4.20;;;2.17;;
1366;SDS011;16877;48.810;9.282;2022-07-11T14:02:36;4.40;;;2.00;;
1366;SDS011;16877;48.810;9.282;2022-07-11T14:05:04;2.80;;;1.73;;
1366;SDS011;16877;48.810;9.282;2022-07-11T14:07:32;4.10;;;2.00;;
1366;SDS011;16877;48.810;9.282;2022-07-11T14:09:59;3.00;;;1.50;;
1366;SDS011;16877;48.810;9.282;2022-07-11T14:12:27;3.53;;;2.07;;
1366;SDS011;16877;48.810;9.282;2022-07-11T14:14:54;2.17;;;1.43;;
1366;SDS011;16877;48.810;9.282;2022-07-11T14:17:21;5.20;;;1.60;;
1366;SDS011;16877;48.810;9.282;2022-07-11T14:19:50;3.03;;;2.10;;
1366;SDS011;16877;48.810;9.282;2022-07-11T14:22:16;2.60;;;1.47;;
1366;SDS011;16877;48.810;9.282;2022-07-11T14:24:43;3.10;;;2.17;;
1366;SDS011;16877;48.810;9.282;2022-07-11T14:27:10;2.77;;;1.60;;
1366;SDS011;16877;48.810;9.282;2022-07-11T14:29:38;2.30;;;1.50;;
1366;SDS011;16877;48.810;9.282;2022-07-11T14:32:06;5.70;;;2.17;;
1366;SDS011;16877;48.810;9.282;2022-07-11T14:34:33;3.60;;;1.83;;
1366;SDS011;16877;48.810;9.282;2022-07-11T14:37:00;2.60;;;1.90;;
1366;SDS011;16877;48.810;9.282;2022-07-11T14:39:29;3.67;;;1.70;;
1366;SDS011;16877;48.810;9.282;2022-07-11T14:41:56;2.80;;;1.80;;
1366;SDS011;16877;48.810;9.282;2022-07-11T14:44:23;2.50;;;1.60;;
1366;SDS011;16877;48.810;9.282;2022-07-11T14:46:51;3.90;;;1.70;;
1366;SDS011;16877;48.810;9.282;2022-07-11T14:49:17;2.30;;;1.80;;
1366;SDS011;16877;48.810;9.282;2022-07-11T14:51:44;2.37;;;1.67;;
1366;SDS011;16877;48.810;9.282;2022-07-11T14:54:11;3.70;;;1.77;;
1366;SDS011;16877;48.810;9.282;2022-07-11T14:56:38;3.57;;;2.30;;
1366;SDS011;16877;48.810;9.282;2022-07-11T14:59:05;2.60;;;1.77;;
1366;SDS011;16877;48.810;9.282;2022-07-11T15:01:32;3.17;;;2.00;;
1366;SDS011;16877;48.810;9.282;2022-07-11T15:04:00;3.80;;;2.10;;
1366;SDS011;16877;48.810;9.282;2022-07-11T15:06:28;4.07;;;2.00;;
1366;SDS011;16877;48.810;9.282;2022-07-11T15:09:09;4.73;;;2.00;;
1366;SDS011;16877;48.810;9.282;2022-07-11T15:11:53;4.13;;;2.10;;
1366;SDS011;16877;48.810;9.282;2022-07-11T15:14:37;2.20;;;1.50;;
1366;SDS011;16877;48.810;9.282;2022-07-11T15:17:04;3.17;;;2.00;;